Time;durP1;ratioP1;P1;durP2;ratioP2;P2;SDS_P1;SDS_P2;PMS_P1;PMS_P2;Temp;Humidity;BMP_temperature;BMP_pressure;BME280_temperature;BME280_humidity;BME280_pressure;Samples;Min_cycle;Max_cycle;Signal;HPM_P1;HPM_P2
2024/01/27 00:01:38;;;;;;;7.62;3.12;;;;;;;4.92;100.00;99095.13;4484940;31;20097;-78
2024/01/27 00:04:07;;;;;;;7.25;3.12;;;;;;;4.89;100.00;99110.91;4483730;32;20413;-78
2024/01/27 00:06:34;;;;;;;6.10;2.75;;;;;;;4.83;100.00;99098.31;4485062;31;20483;-78
2024/01/27 00:09:02;;;;;;;9.13;3.60;;;;;;;4.70;100.00;99101.63;4484976;31;20149;-78
2024/01/27 00:11:30;;;;;;;8.60;3.50;;;;;;;4.64;100.00;99102.00;4484838;31;20598;-77
2024/01/27 00:13:59;;;;;;;7.40;2.28;;;;;;;4.60;100.00;99092.72;4484975;31;20404;-77
2024/01/27 00:16:26;;;;;;;6.62;2.85;;;;;;;4.62;100.00;99101.28;4484901;31;20560;-77
2024/01/27 00:18:54;;;;;;;6.82;2.40;;;;;;;4.69;100.00;99115.53;4492356;31;20596;-77
2024/01/27 00:21:21;;;;;;;4.47;1.55;;;;;;;4.74;100.00;99105.72;4500432;31;20165;-77
2024/01/27 00:23:49;;;;;;;5.10;1.25;;;;;;;4.85;100.00;99118.06;4501122;31;20159;-77
2024/01/27 00:26:17;;;;;;;5.12;1.42;;;;;;;4.83;100.00;99116.47;4499301;31;20149;-78
2024/01/27 00:28:44;;;;;;;2.97;1.20;;;;;;;4.75;100.00;99110.00;4500823;31;20103;-77
2024/01/27 00:31:12;;;;;;;3.10;0.95;;;;;;;4.75;100.00;99122.13;4488683;31;20473;-77
2024/01/27 00:33:40;;;;;;;4.05;1.15;;;;;;;4.78;100.00;99098.56;4484812;31;20139;-76
2024/01/27 00:36:07;;;;;;;2.80;1.37;;;;;;;4.85;100.00;99109.44;4484879;31;20119;-76
2024/01/27 00:38:35;;;;;;;1.15;0.60;;;;;;;4.77;100.00;99134.09;4485087;31;20092;-76
2024/01/27 00:41:03;;;;;;;1.52;0.70;;;;;;;4.73;100.00;99129.19;4484676;31;20092;-76
2024/01/27 00:43:30;;;;;;;2.42;0.73;;;;;;;4.64;100.00;99127.94;4484738;31;20126;-76
2024/01/27 00:45:58;;;;;;;2.25;0.88;;;;;;;4.58;100.00;99120.53;4484462;31;20176;-76
2024/01/27 00:48:25;;;;;;;1.55;1.10;;;;;;;4.56;100.00;99128.41;4484846;31;20154;-76
2024/01/27 00:50:56;;;;;;;2.22;0.93;;;;;;;4.49;100.00;99144.44;4484507;31;20080;-76
2024/01/27 00:53:23;;;;;;;1.80;1.10;;;;;;;4.47;100.00;99167.00;4484617;31;20097;-76
2024/01/27 00:55:51;;;;;;;2.45;1.08;;;;;;;4.56;100.00;99177.72;4484644;31;20157;-76
2024/01/27 00:58:18;;;;;;;2.90;0.90;;;;;;;4.58;100.00;99196.59;4484626;31;20547;-76
2024/01/27 01:00:46;;;;;;;4.82;1.55;;;;;;;4.50;100.00;99185.03;4484864;31;20115;-76
2024/01/27 01:03:14;;;;;;;1.77;1.12;;;;;;;4.47;100.00;99192.94;4484503;32;20149;-76
2024/01/27 01:05:45;;;;;;;1.15;0.73;;;;;;;4.48;100.00;99190.31;4484460;31;20106;-76
2024/01/27 01:08:12;;;;;;;1.10;0.70;;;;;;;4.51;100.00;99194.44;4484632;31;20100;-76
2024/01/27 01:10:40;;;;;;;2.83;1.00;;;;;;;4.49;100.00;99222.25;4484365;31;20458;-76
2024/01/27 01:13:07;;;;;;;3.17;1.20;;;;;;;4.44;100.00;99214.72;4484513;31;20456;-76
2024/01/27 01:15:35;;;;;;;3.30;1.12;;;;;;;4.44;100.00;99206.94;4484362;31;20108;-76
2024/01/27 01:18:03;;;;;;;1.75;1.05;;;;;;;4.37;100.00;99222.00;4486158;31;20079;-76
2024/01/27 01:20:32;;;;;;;1.35;0.80;;;;;;;4.42;100.00;99219.16;4499378;31;20147;-76
2024/01/27 01:22:59;;;;;;;2.97;1.60;;;;;;;4.38;100.00;99236.66;4500132;31;20645;-76
2024/01/27 01:25:27;;;;;;;1.10;0.88;;;;;;;4.39;100.00;99234.91;4500060;31;20166;-76
2024/01/27 01:27:55;;;;;;;1.92;1.00;;;;;;;4.35;100.00;99244.63;4500107;31;20105;-76
2024/01/27 01:30:23;;;;;;;2.12;0.90;;;;;;;4.41;100.00;99240.84;4493572;31;20135;-76
2024/01/27 01:32:51;;;;;;;2.40;1.17;;;;;;;4.40;100.00;99234.81;4484131;31;20097;-76
2024/01/27 01:35:19;;;;;;;1.15;0.95;;;;;;;4.42;100.00;99245.09;4484181;31;20176;-76
2024/01/27 01:37:48;;;;;;;3.62;1.00;;;;;;;4.36;100.00;99230.75;4483993;31;20469;-76
2024/01/27 01:40:15;;;;;;;2.42;1.08;;;;;;;4.30;100.00;99244.06;4484257;31;20097;-76
2024/01/27 01:42:43;;;;;;;2.47;0.80;;;;;;;4.33;100.00;99259.44;4483903;32;20092;-76
2024/01/27 01:45:12;;;;;;;3.62;1.00;;;;;;;4.33;100.00;99266.38;4484172;31;20390;-76
2024/01/27 01:47:40;;;;;;;1.05;0.57;;;;;;;4.24;100.00;99263.38;4482855;32;20124;-76
2024/01/27 01:50:08;;;;;;;1.85;0.93;;;;;;;4.27;100.00;99275.34;4484095;31;20134;-76
2024/01/27 01:52:37;;;;;;;1.17;0.65;;;;;;;4.38;100.00;99278.16;4483992;31;20460;-76
2024/01/27 01:55:05;;;;;;;0.73;0.50;;;;;;;4.35;100.00;99280.09;4483919;32;20157;-76
2024/01/27 01:57:33;;;;;;;1.02;0.93;;;;;;;4.32;100.00;99293.25;4483792;31;20092;-76
2024/01/27 02:00:06;;;;;;;2.78;0.70;;;;;;;4.31;100.00;99296.75;4483926;31;20502;-76
2024/01/27 02:02:46;;;;;;;2.58;0.40;;;;;;;4.33;100.00;99306.13;4483756;31;20089;-76
2024/01/27 02:05:14;;;;;;;0.75;0.50;;;;;;;4.35;100.00;99309.47;4483754;31;20618;-76
2024/01/27 02:07:42;;;;;;;0.60;0.47;;;;;;;4.36;100.00;99315.47;4483605;31;20473;-76
2024/01/27 02:10:15;;;;;;;3.70;0.50;;;;;;;4.35;100.00;99340.59;4483757;31;20100;-76
2024/01/27 02:12:44;;;;;;;0.37;0.32;;;;;;;4.38;100.00;99327.44;4483647;31;20156;-76
2024/01/27 02:15:13;;;;;;;1.15;0.55;;;;;;;4.40;100.00;99335.97;4484012;31;20088;-76
2024/01/27 02:17:41;;;;;;;0.88;0.40;;;;;;;4.32;100.00;99314.81;4483652;31;20164;-76
2024/01/27 02:20:09;;;;;;;0.88;0.40;;;;;;;4.30;100.00;99319.25;4499145;31;20121;-76
2024/01/27 02:22:37;;;;;;;0.80;0.40;;;;;;;4.30;100.00;99302.84;4499147;31;20429;-76
2024/01/27 02:25:05;;;;;;;0.95;0.50;;;;;;;4.22;100.00;99321.41;4499343;31;20596;-76
2024/01/27 02:27:32;;;;;;;3.37;0.62;;;;;;;4.16;100.00;99319.16;4498966;31;20096;-76
2024/01/27 02:30:00;;;;;;;0.43;0.30;;;;;;;4.13;100.00;99294.22;4495115;31;20450;-76
2024/01/27 02:32:34;;;;;;;0.95;0.50;;;;;;;4.02;100.00;99294.81;4484092;31;20571;-76
2024/01/27 02:35:02;;;;;;;1.27;0.57;;;;;;;4.00;100.00;99285.47;4485828;31;20088;-76
2024/01/27 02:37:30;;;;;;;0.73;0.30;;;;;;;3.98;100.00;99302.84;4485570;31;20152;-75
2024/01/27 02:39:57;;;;;;;1.95;0.50;;;;;;;3.96;100.00;99300.31;4485655;31;20135;-76
2024/01/27 02:42:25;;;;;;;1.00;0.22;;;;;;;3.85;100.00;99284.53;4485369;32;20526;-76
2024/01/27 02:44:53;;;;;;;0.57;0.40;;;;;;;3.79;100.00;99303.81;4485504;31;20088;-75
2024/01/27 02:47:20;;;;;;;3.92;0.43;;;;;;;3.75;100.00;99310.06;4485379;31;20160;-75
2024/01/27 02:49:48;;;;;;;1.20;0.50;;;;;;;3.75;100.00;99304.06;4485510;31;20104;-76
2024/01/27 02:52:16;;;;;;;0.90;0.40;;;;;;;3.81;100.00;99303.75;4485666;31;20108;-76
2024/01/27 02:54:44;;;;;;;0.28;0.28;;;;;;;3.79;100.00;99341.88;4485483;31;20723;-76
2024/01/27 02:57:12;;;;;;;1.45;0.57;;;;;;;3.69;100.00;99347.53;4485404;31;20096;-76
2024/01/27 02:59:40;;;;;;;0.60;0.35;;;;;;;3.71;100.00;99363.00;4485468;31;20092;-76
2024/01/27 03:02:08;;;;;;;1.98;0.75;;;;;;;3.66;100.00;99339.88;4485707;31;20100;-76
2024/01/27 03:04:36;;;;;;;1.90;0.60;;;;;;;3.69;100.00;99370.84;4485468;31;20599;-76
2024/01/27 03:07:04;;;;;;;1.42;0.60;;;;;;;3.64;100.00;99359.88;4485395;31;20118;-76
2024/01/27 03:09:33;;;;;;;0.40;0.30;;;;;;;3.62;100.00;99364.28;4485308;31;20101;-76
2024/01/27 03:12:00;;;;;;;1.62;0.95;;;;;;;3.50;100.00;99351.97;4485394;32;20103;-76
2024/01/27 03:14:29;;;;;;;0.62;0.43;;;;;;;3.41;100.00;99357.59;4485159;31;20184;-76
2024/01/27 03:16:56;;;;;;;2.45;0.73;;;;;;;3.46;100.00;99366.00;4485430;31;20471;-75
2024/01/27 03:19:26;;;;;;;3.22;1.20;;;;;;;3.39;100.00;99352.50;4495865;31;20103;-75
2024/01/27 03:21:55;;;;;;;1.25;0.32;;;;;;;3.40;100.00;99380.06;4501297;31;20582;-75
2024/01/27 03:24:22;;;;;;;1.48;0.52;;;;;;;3.44;100.00;99415.28;4501076;31;20100;-76
2024/01/27 03:26:52;;;;;;;1.23;0.60;;;;;;;3.41;100.00;99407.66;4501381;31;20134;-76
2024/01/27 03:29:19;;;;;;;0.40;0.20;;;;;;;3.32;100.00;99401.19;4500939;31;20088;-76
2024/01/27 03:31:49;;;;;;;1.23;0.40;;;;;;;3.29;100.00;99409.09;4485640;31;20169;-76
2024/01/27 03:34:17;;;;;;;0.55;0.35;;;;;;;3.23;100.00;99437.87;4485112;31;20093;-74
2024/01/27 03:36:48;;;;;;;0.88;0.65;;;;;;;3.21;100.00;99424.19;4485336;31;20096;-75
2024/01/27 03:39:16;;;;;;;2.55;0.50;;;;;;;3.15;100.00;99424.44;4485154;31;20449;-76
2024/01/27 03:41:43;;;;;;;0.52;0.30;;;;;;;3.19;100.00;99420.81;4485263;31;20402;-76
2024/01/27 03:44:11;;;;;;;0.90;0.32;;;;;;;3.16;100.00;99427.00;4484552;31;20131;-75
2024/01/27 03:46:39;;;;;;;2.03;0.57;;;;;;;3.15;100.00;99427.91;4485382;31;20092;-75
2024/01/27 03:49:06;;;;;;;1.05;0.80;;;;;;;3.14;100.00;99440.91;4485491;31;20096;-75
2024/01/27 03:51:34;;;;;;;3.08;0.60;;;;;;;3.00;100.00;99454.50;4485468;32;20096;-76
2024/01/27 03:54:02;;;;;;;2.15;0.90;;;;;;;3.02;100.00;99434.56;4485298;31;20096;-76
2024/01/27 03:56:30;;;;;;;0.65;0.50;;;;;;;3.02;100.00;99431.97;4485251;31;20111;-76
2024/01/27 03:58:57;;;;;;;2.17;0.65;;;;;;;3.01;100.00;99438.06;4484979;31;20096;-76
2024/01/27 04:01:25;;;;;;;2.70;0.68;;;;;;;2.95;100.00;99448.69;4485120;31;20092;-76
2024/01/27 04:03:53;;;;;;;1.02;0.50;;;;;;;3.02;100.00;99452.69;4484959;31;20084;-75
2024/01/27 04:06:21;;;;;;;0.80;0.60;;;;;;;2.96;100.00;99464.16;4485377;31;20115;-75
2024/01/27 04:08:48;;;;;;;0.55;0.45;;;;;;;3.02;100.00;99468.22;4484822;31;20114;-76
2024/01/27 04:11:22;;;;;;;0.70;0.50;;;;;;;3.07;100.00;99468.00;4485111;31;20103;-75
2024/01/27 04:13:50;;;;;;;1.08;0.60;;;;;;;3.02;100.00;99474.22;4484933;31;20813;-76
2024/01/27 04:16:19;;;;;;;0.65;0.47;;;;;;;3.05;100.00;99472.41;4485080;31;20486;-75
2024/01/27 04:18:46;;;;;;;2.35;0.55;;;;;;;3.06;100.00;99468.91;4491452;31;20096;-75
2024/01/27 04:21:14;;;;;;;3.87;0.90;;;;;;;2.98;100.00;99479.62;4500752;31;20535;-75
2024/01/27 04:23:42;;;;;;;1.00;0.40;;;;;;;2.97;100.00;99468.44;4500640;31;20505;-75
2024/01/27 04:26:11;;;;;;;0.43;0.40;;;;;;;2.96;100.00;99468.50;4500782;31;20088;-75
2024/01/27 04:28:40;;;;;;;3.22;1.33;;;;;;;3.06;100.00;99481.84;4500919;31;20449;-76
2024/01/27 04:31:08;;;;;;;2.05;0.57;;;;;;;3.01;100.00;99479.47;4489235;31;20157;-76
2024/01/27 04:33:35;;;;;;;0.60;0.40;;;;;;;3.00;100.00;99504.53;4483634;32;20635;-76
2024/01/27 04:36:03;;;;;;;0.98;0.40;;;;;;;3.00;100.00;99491.59;4484725;31;20165;-75
2024/01/27 04:38:30;;;;;;;1.42;0.50;;;;;;;2.94;100.00;99494.47;4484872;31;20180;-75
2024/01/27 04:40:58;;;;;;;3.37;0.57;;;;;;;2.92;100.00;99496.28;4484785;32;20432;-75
2024/01/27 04:43:25;;;;;;;1.37;0.40;;;;;;;2.97;100.00;99504.66;4484771;31;20240;-75
2024/01/27 04:45:53;;;;;;;1.35;0.43;;;;;;;3.02;100.00;99515.63;4484617;31;20096;-75
2024/01/27 04:48:21;;;;;;;1.65;0.60;;;;;;;3.05;100.00;99496.53;4485165;31;20123;-75
2024/01/27 04:50:49;;;;;;;1.15;0.50;;;;;;;3.11;100.00;99522.16;4484857;31;20122;-76
2024/01/27 04:53:17;;;;;;;1.90;0.80;;;;;;;3.13;100.00;99524.66;4484664;31;20096;-75
2024/01/27 04:55:44;;;;;;;8.15;1.50;;;;;;;3.14;100.00;99519.41;4483927;31;20168;-76
2024/01/27 04:58:12;;;;;;;0.62;0.45;;;;;;;3.02;100.00;99523.41;4484611;31;20523;-75
2024/01/27 05:00:40;;;;;;;3.22;0.57;;;;;;;2.95;100.00;99524.62;4484296;31;20084;-75
2024/01/27 05:03:13;;;;;;;1.52;0.62;;;;;;;2.91;100.00;99546.34;4484625;31;20083;-75
2024/01/27 05:05:42;;;;;;;0.88;0.50;;;;;;;2.91;100.00;99550.72;4484548;31;20084;-75
2024/01/27 05:08:10;;;;;;;1.02;0.70;;;;;;;2.83;100.00;99533.78;4484701;31;20089;-75
2024/01/27 05:10:37;;;;;;;0.70;0.50;;;;;;;2.81;100.00;99538.16;4484327;31;20157;-76
2024/01/27 05:13:05;;;;;;;3.25;1.37;;;;;;;2.90;100.00;99529.13;4484691;32;20472;-76
2024/01/27 05:15:33;;;;;;;3.10;0.55;;;;;;;2.82;100.00;99511.38;4484437;31;20097;-76
2024/01/27 05:18:01;;;;;;;2.40;1.10;;;;;;;2.82;100.00;99531.25;4486050;31;20487;-75
2024/01/27 05:20:29;;;;;;;1.58;0.62;;;;;;;2.77;100.00;99520.25;4500137;31;20153;-76
2024/01/27 05:22:58;;;;;;;1.30;0.62;;;;;;;2.77;100.00;99536.63;4500375;31;20110;-75
2024/01/27 05:25:27;;;;;;;3.40;0.75;;;;;;;2.75;100.00;99533.25;4500214;31;20118;-76
2024/01/27 05:27:55;;;;;;;6.45;0.77;;;;;;;2.80;100.00;99549.44;4500177;31;20118;-75
2024/01/27 05:30:23;;;;;;;2.75;0.40;;;;;;;2.86;100.00;99543.13;4493713;31;20096;-75
2024/01/27 05:32:50;;;;;;;1.83;0.60;;;;;;;2.79;100.00;99549.50;4484386;31;20092;-75
2024/01/27 05:35:19;;;;;;;5.15;1.15;;;;;;;2.75;100.00;99535.84;4484039;31;20108;-75
2024/01/27 05:37:46;;;;;;;3.30;1.27;;;;;;;2.72;100.00;99542.91;4484173;32;20093;-75
2024/01/27 05:40:14;;;;;;;0.43;0.43;;;;;;;2.77;100.00;99536.63;4484152;31;20155;-75
2024/01/27 05:42:45;;;;;;;2.87;0.60;;;;;;;2.69;100.00;99551.63;4484048;31;20158;-75
2024/01/27 05:45:12;;;;;;;1.95;0.62;;;;;;;2.68;100.00;99549.97;4484276;31;20093;-75
2024/01/27 05:47:41;;;;;;;7.65;0.70;;;;;;;2.67;100.00;99569.81;4483885;31;20132;-75
2024/01/27 05:50:09;;;;;;;7.00;0.75;;;;;;;2.62;100.00;99566.59;4483894;31;20096;-75
2024/01/27 05:52:37;;;;;;;2.87;1.27;;;;;;;2.53;100.00;99577.34;4484303;31;20114;-75
2024/01/27 05:55:06;;;;;;;0.85;0.68;;;;;;;2.56;100.00;99597.91;4483966;31;20457;-75
2024/01/27 05:57:35;;;;;;;2.40;0.50;;;;;;;2.56;100.00;99610.00;4483903;31;20176;-75
2024/01/27 06:00:03;;;;;;;3.03;0.55;;;;;;;2.49;100.00;99606.84;4484101;31;20092;-75
2024/01/27 06:02:33;;;;;;;2.65;0.60;;;;;;;2.48;100.00;99618.06;4484091;32;20092;-76
2024/01/27 06:05:01;;;;;;;5.57;0.60;;;;;;;2.46;100.00;99625.91;4483904;31;20100;-75
2024/01/27 06:07:29;;;;;;;4.05;1.05;;;;;;;2.44;100.00;99635.47;4485392;31;20152;-75
2024/01/27 06:10:07;;;;;;;1.87;0.80;;;;;;;2.46;100.00;99632.81;4486172;31;20120;-75
2024/01/27 06:12:35;;;;;;;1.75;0.50;;;;;;;2.45;100.00;99634.59;4486119;31;20161;-75
2024/01/27 06:15:04;;;;;;;3.50;0.70;;;;;;;2.51;100.00;99640.38;4486046;31;20084;-75
2024/01/27 06:17:32;;;;;;;5.68;0.93;;;;;;;2.49;100.00;99640.47;4485683;31;20108;-75
2024/01/27 06:20:01;;;;;;;1.35;1.00;;;;;;;2.52;100.00;99631.75;4500408;31;20602;-75
2024/01/27 06:22:31;;;;;;;1.40;0.52;;;;;;;2.54;100.00;99645.44;4501436;31;20099;-75
2024/01/27 06:24:58;;;;;;;0.60;0.40;;;;;;;2.55;100.00;99652.28;4502022;31;20099;-75
2024/01/27 06:27:27;;;;;;;1.20;0.50;;;;;;;2.48;100.00;99636.19;4501636;31;20092;-76
2024/01/27 06:29:55;;;;;;;2.28;0.65;;;;;;;2.51;100.00;99646.41;4498289;31;20179;-76
2024/01/27 06:32:22;;;;;;;1.33;0.50;;;;;;;2.53;100.00;99648.91;4485777;31;20784;-75
2024/01/27 06:34:50;;;;;;;2.55;0.47;;;;;;;2.52;100.00;99640.31;4481587;31;129794;-75
2024/01/27 06:37:18;;;;;;;1.98;0.68;;;;;;;2.54;100.00;99643.69;4484411;32;20088;-75
2024/01/27 06:39:50;;;;;;;1.50;0.57;;;;;;;2.58;100.00;99650.41;4485672;31;20088;-75
2024/01/27 06:42:17;;;;;;;2.00;0.95;;;;;;;2.59;100.00;99665.03;4485476;31;20092;-75
2024/01/27 06:44:45;;;;;;;2.12;0.60;;;;;;;2.57;100.00;99653.91;4485478;31;20084;-75
2024/01/27 06:47:13;;;;;;;3.42;0.98;;;;;;;2.56;100.00;99664.31;4485589;31;20115;-75
2024/01/27 06:49:41;;;;;;;4.97;0.60;;;;;;;2.56;100.00;99660.00;4485603;31;20089;-75
2024/01/27 06:52:09;;;;;;;1.90;0.98;;;;;;;2.57;100.00;99674.59;4485480;31;20161;-75
2024/01/27 06:54:41;;;;;;;1.33;0.35;;;;;;;2.55;100.00;99658.31;4485503;31;20093;-75
2024/01/27 06:57:17;;;;;;;2.15;0.73;;;;;;;2.56;100.00;99678.09;4485543;31;20133;-75
2024/01/27 06:59:48;;;;;;;5.47;0.73;;;;;;;2.59;100.00;99677.97;4485479;31;20119;-75
2024/01/27 07:02:15;;;;;;;6.55;0.98;;;;;;;2.62;100.00;99674.38;4485423;31;20092;-75
2024/01/27 07:04:43;;;;;;;2.83;0.62;;;;;;;2.62;100.00;99669.22;4485438;31;20523;-76
2024/01/27 07:07:11;;;;;;;3.17;0.80;;;;;;;2.60;100.00;99679.63;4485686;31;20104;-75
2024/01/27 07:09:40;;;;;;;2.58;0.50;;;;;;;2.64;100.00;99682.94;4485541;31;20100;-75
2024/01/27 07:12:08;;;;;;;2.03;0.80;;;;;;;2.67;100.00;99685.41;4485485;31;20089;-76
2024/01/27 07:14:36;;;;;;;2.10;0.60;;;;;;;2.68;100.00;99694.84;4485671;31;20105;-75
2024/01/27 07:17:04;;;;;;;2.75;0.80;;;;;;;2.70;100.00;99702.56;4485276;31;20097;-75
2024/01/27 07:19:32;;;;;;;3.90;1.02;;;;;;;2.67;100.00;99714.69;4496081;31;20486;-76
2024/01/27 07:22:00;;;;;;;4.10;0.90;;;;;;;2.76;100.00;99710.06;4501107;31;20096;-75
2024/01/27 07:24:28;;;;;;;3.83;0.98;;;;;;;2.75;100.00;99710.97;4500857;31;20200;-75
2024/01/27 07:26:58;;;;;;;3.15;1.08;;;;;;;2.78;100.00;99695.31;4499795;31;20155;-76
2024/01/27 07:29:25;;;;;;;1.40;0.68;;;;;;;2.82;100.00;99696.87;4500788;31;20096;-75
2024/01/27 07:31:53;;;;;;;2.92;0.77;;;;;;;2.90;100.00;99709.47;4485188;31;20233;-76
2024/01/27 07:34:22;;;;;;;2.75;0.85;;;;;;;2.93;100.00;99697.22;4485111;31;20092;-75
2024/01/27 07:36:50;;;;;;;2.47;0.80;;;;;;;2.97;100.00;99701.38;4485195;31;20115;-75
2024/01/27 07:39:18;;;;;;;1.60;0.65;;;;;;;3.02;100.00;99694.25;4485248;31;20097;-76
2024/01/27 07:41:45;;;;;;;1.35;0.55;;;;;;;3.06;100.00;99689.78;4485000;31;20104;-75
2024/01/27 07:44:14;;;;;;;2.03;0.60;;;;;;;3.11;100.00;99702.53;4485209;31;20147;-75
2024/01/27 07:46:41;;;;;;;3.50;0.95;;;;;;;3.11;100.00;99697.34;4485191;31;20453;-75
2024/01/27 07:49:09;;;;;;;0.70;0.60;;;;;;;3.14;100.00;99697.22;4485088;31;20603;-75
2024/01/27 07:51:38;;;;;;;0.37;0.32;;;;;;;3.23;100.00;99702.00;4485168;31;20487;-75
2024/01/27 07:54:06;;;;;;;5.32;0.68;;;;;;;3.29;100.00;99703.47;4485289;31;20092;-75
2024/01/27 07:56:34;;;;;;;2.10;0.65;;;;;;;3.34;100.00;99699.75;4485166;31;20528;-75
2024/01/27 07:59:01;;;;;;;1.17;0.50;;;;;;;3.40;100.00;99747.03;4484962;31;20158;-76
2024/01/27 08:01:29;;;;;;;1.73;0.60;;;;;;;3.46;100.00;99718.25;4484986;32;20169;-76
2024/01/27 08:03:58;;;;;;;2.22;0.65;;;;;;;3.46;100.00;99729.44;4484858;31;20114;-75
2024/01/27 08:06:32;;;;;;;5.70;0.65;;;;;;;3.50;100.00;99740.53;4485016;31;20096;-76
2024/01/27 08:09:01;;;;;;;1.17;0.50;;;;;;;3.54;100.00;99747.25;4485001;31;20497;-76
2024/01/27 08:11:29;;;;;;;3.90;0.70;;;;;;;3.61;100.00;99759.03;4485387;31;20118;-76
2024/01/27 08:14:01;;;;;;;1.83;0.60;;;;;;;3.66;100.00;99762.25;4484914;31;20115;-76
2024/01/27 08:16:28;;;;;;;1.45;0.82;;;;;;;3.71;100.00;99769.84;4485256;31;20119;-76
2024/01/27 08:18:56;;;;;;;0.70;0.47;;;;;;;3.77;100.00;99784.25;4492296;31;20131;-76
2024/01/27 08:21:24;;;;;;;1.42;0.85;;;;;;;3.78;100.00;99786.78;4500719;31;20088;-76
2024/01/27 08:24:04;;;;;;;2.22;0.55;;;;;;;3.83;100.00;99789.16;4500414;31;20467;-76
2024/01/27 08:26:32;;;;;;;4.32;0.70;;;;;;;3.80;100.00;99782.38;4500800;31;20462;-76
2024/01/27 08:29:00;;;;;;;2.05;1.00;;;;;;;3.87;100.00;99806.25;4500549;31;20410;-75
2024/01/27 08:31:27;;;;;;;1.42;0.50;;;;;;;3.88;100.00;99787.22;4486541;31;20160;-76
2024/01/27 08:33:55;;;;;;;2.47;0.73;;;;;;;3.95;100.00;99782.56;4484553;31;20462;-76
2024/01/27 08:36:23;;;;;;;1.30;0.70;;;;;;;3.96;100.00;99789.47;4484631;31;20157;-76
2024/01/27 08:38:50;;;;;;;0.80;0.40;;;;;;;4.02;100.00;99777.03;4484797;31;20470;-76
2024/01/27 08:41:18;;;;;;;4.28;0.93;;;;;;;4.06;100.00;99780.34;4484842;31;20465;-75
2024/01/27 08:43:46;;;;;;;5.32;0.95;;;;;;;4.06;100.00;99781.19;4484659;31;20118;-75
2024/01/27 08:46:15;;;;;;;2.40;0.70;;;;;;;4.11;100.00;99785.31;4484959;31;20092;-75
2024/01/27 08:48:43;;;;;;;3.05;1.02;;;;;;;4.14;100.00;99813.72;4484796;31;20172;-75
2024/01/27 08:51:12;;;;;;;4.60;0.90;;;;;;;4.26;100.00;99797.56;4484954;31;20471;-76
2024/01/27 08:53:40;;;;;;;1.35;0.55;;;;;;;4.25;100.00;99793.28;4484579;31;20092;-76
2024/01/27 08:56:08;;;;;;;1.35;0.73;;;;;;;4.27;100.00;99791.47;4484601;31;20105;-76
2024/01/27 08:58:35;;;;;;;1.95;0.40;;;;;;;4.31;100.00;99790.41;4484877;31;20179;-76
2024/01/27 09:01:05;;;;;;;0.75;0.37;;;;;;;4.28;100.00;99798.31;4484615;31;20143;-76
2024/01/27 09:03:33;;;;;;;2.10;0.50;;;;;;;4.36;100.00;99797.97;4484579;31;20081;-76
2024/01/27 09:06:00;;;;;;;2.35;0.73;;;;;;;4.50;100.00;99805.94;4484634;31;20109;-76
2024/01/27 09:08:28;;;;;;;5.90;2.12;;;;;;;4.58;100.00;99818.56;4484502;31;20124;-75
2024/01/27 09:10:56;;;;;;;2.20;0.65;;;;;;;4.59;100.00;99826.28;4484553;32;20507;-76
2024/01/27 09:13:23;;;;;;;1.58;0.50;;;;;;;4.56;100.00;99823.81;4484369;32;20084;-76
2024/01/27 09:15:51;;;;;;;7.90;0.52;;;;;;;4.49;98.58;99831.97;4484835;31;20084;-76
2024/01/27 09:18:20;;;;;;;2.95;0.50;;;;;;;4.50;100.00;99837.09;4488004;31;20188;-76
2024/01/27 09:20:52;;;;;;;4.40;0.70;;;;;;;4.54;100.00;99817.00;4500525;31;20143;-76
2024/01/27 09:23:19;;;;;;;3.40;0.50;;;;;;;4.64;100.00;99826.06;4500286;31;20088;-76
2024/01/27 09:25:48;;;;;;;5.95;1.30;;;;;;;4.60;100.00;99821.91;4500311;31;20426;-76
2024/01/27 09:28:16;;;;;;;0.95;0.47;;;;;;;4.60;99.68;99827.97;4500176;31;20554;-76
2024/01/27 09:30:44;;;;;;;3.12;1.15;;;;;;;4.59;98.89;99809.87;4491488;31;20122;-76
2024/01/27 09:33:12;;;;;;;4.50;1.02;;;;;;;4.64;98.49;99812.25;4484232;31;20189;-76
2024/01/27 09:35:41;;;;;;;2.53;0.70;;;;;;;4.64;98.59;99844.22;4484059;31;20103;-76
2024/01/27 09:38:14;;;;;;;2.20;0.77;;;;;;;4.62;96.80;99822.69;4484354;31;20461;-76
2024/01/27 09:40:42;;;;;;;5.25;0.50;;;;;;;4.58;96.03;99803.00;4483928;31;20079;-76
2024/01/27 09:43:13;;;;;;;2.30;0.77;;;;;;;4.56;100.00;99821.22;4483066;32;20093;-76
2024/01/27 09:45:42;;;;;;;5.10;0.73;;;;;;;4.61;99.30;99802.84;4482852;32;20449;-76
2024/01/27 09:48:11;;;;;;;1.98;0.75;;;;;;;4.78;98.86;99805.47;4484201;31;20093;-76
2024/01/27 09:50:45;;;;;;;2.08;0.55;;;;;;;4.77;96.59;99808.97;4484172;31;20166;-76
2024/01/27 09:53:13;;;;;;;1.55;0.75;;;;;;;4.66;95.71;99816.44;4484131;31;20148;-76
2024/01/27 09:55:40;;;;;;;3.83;0.57;;;;;;;4.72;95.56;99823.09;4483727;32;20092;-76
2024/01/27 09:58:08;;;;;;;2.80;0.70;;;;;;;4.71;90.72;99830.03;4483959;31;20160;-76
2024/01/27 10:00:38;;;;;;;3.87;1.12;;;;;;;4.89;93.24;99837.84;4482533;32;20088;-76
2024/01/27 10:03:09;;;;;;;4.80;1.13;;;;;;;4.92;89.01;99848.06;4484096;32;20114;-76
2024/01/27 10:05:37;;;;;;;5.47;0.95;;;;;;;4.86;88.95;99848.37;4483843;31;20464;-76
2024/01/27 10:08:07;;;;;;;1.83;0.65;;;;;;;4.88;87.54;99867.34;4483801;31;20092;-76
2024/01/27 10:10:35;;;;;;;2.67;1.02;;;;;;;4.82;86.63;99884.03;4483767;31;20111;-76
2024/01/27 10:13:03;;;;;;;0.88;0.45;;;;;;;4.83;86.66;99844.19;4483850;31;20100;-76
2024/01/27 10:15:32;;;;;;;3.22;0.93;;;;;;;4.86;85.58;99836.25;4483716;31;20084;-76
2024/01/27 10:18:06;;;;;;;6.65;0.80;;;;;;;4.87;84.66;99850.91;4484991;31;20921;-76
2024/01/27 10:20:34;;;;;;;3.28;0.80;;;;;;;4.89;85.09;99869.84;4499512;31;20088;-76
2024/01/27 10:23:12;;;;;;;2.35;0.50;;;;;;;4.90;82.76;99855.94;4499552;31;20134;-76
2024/01/27 10:25:41;;;;;;;3.22;0.55;;;;;;;4.95;83.36;99845.31;4499376;31;20068;-76
2024/01/27 10:28:12;;;;;;;8.27;1.00;;;;;;;4.92;81.53;99848.06;4499538;31;20092;-76
2024/01/27 10:30:39;;;;;;;1.37;0.80;;;;;;;4.92;83.26;99846.34;4491103;31;20139;-76
2024/01/27 10:33:16;;;;;;;4.82;0.80;;;;;;;5.11;85.77;99846.25;4483630;31;20104;-76
2024/01/27 10:35:43;;;;;;;2.85;0.90;;;;;;;5.27;85.81;99843.75;4482971;31;20123;-76
2024/01/27 10:38:10;;;;;;;4.28;0.70;;;;;;;5.24;83.15;99846.50;4483542;31;20108;-76
2024/01/27 10:40:39;;;;;;;2.42;0.77;;;;;;;5.34;84.80;99839.09;4483347;31;20096;-76
2024/01/27 10:43:08;;;;;;;2.75;0.70;;;;;;;5.39;81.67;99831.06;4483565;31;20115;-76
2024/01/27 10:45:40;;;;;;;3.87;0.85;;;;;;;5.36;80.54;99826.00;4482899;31;20118;-76
2024/01/27 10:48:11;;;;;;;1.42;0.62;;;;;;;5.64;80.84;99823.69;4483507;31;20088;-76
2024/01/27 10:50:40;;;;;;;11.25;1.52;;;;;;;5.86;77.16;99826.00;4483470;31;20137;-76
2024/01/27 10:53:22;;;;;;;1.30;0.55;;;;;;;5.86;77.26;99841.59;4483565;31;20147;-76
2024/01/27 10:55:54;;;;;;;1.17;0.82;;;;;;;5.72;78.35;99828.47;4485611;31;20153;-76
2024/01/27 10:58:26;;;;;;;3.40;1.05;;;;;;;5.61;79.15;99830.81;4485443;31;20194;-76
2024/01/27 11:00:53;;;;;;;2.75;1.30;;;;;;;5.54;80.15;99839.81;4485593;31;20156;-76
2024/01/27 11:03:27;;;;;;;1.65;0.40;;;;;;;5.83;78.28;99836.56;4485587;31;20092;-76
2024/01/27 11:05:56;;;;;;;4.25;0.68;;;;;;;5.77;76.77;99852.50;4484190;32;20111;-76
2024/01/27 11:08:27;;;;;;;2.37;0.60;;;;;;;5.49;75.85;99860.84;4484167;32;20100;-76
2024/01/27 11:10:55;;;;;;;2.33;0.68;;;;;;;5.52;77.91;99847.72;4485429;31;20088;-76
2024/01/27 11:13:24;;;;;;;4.32;1.20;;;;;;;5.63;75.91;99857.56;4485528;31;20093;-76
2024/01/27 11:15:54;;;;;;;3.53;0.62;;;;;;;5.69;74.84;99839.03;4485237;31;20081;-76
2024/01/27 11:18:21;;;;;;;5.78;0.90;;;;;;;5.61;76.75;99854.19;4489159;31;20556;-76
2024/01/27 11:20:56;;;;;;;4.00;0.95;;;;;;;5.77;76.74;99857.69;4501077;31;20100;-76
2024/01/27 11:23:32;;;;;;;2.17;0.60;;;;;;;5.76;76.98;99873.38;4499792;31;20088;-76
2024/01/27 11:26:06;;;;;;;2.65;0.60;;;;;;;5.68;78.48;99842.56;4493828;31;20136;-76
2024/01/27 11:28:35;;;;;;;5.10;0.50;;;;;;;5.71;78.12;99842.41;4501234;31;20123;-76
2024/01/27 11:31:04;;;;;;;3.42;1.33;;;;;;;5.69;75.90;99859.84;4490359;31;20153;-76
2024/01/27 11:33:31;;;;;;;7.65;0.60;;;;;;;5.58;76.66;99843.97;4485333;31;20093;-76
2024/01/27 11:36:02;;;;;;;7.55;0.75;;;;;;;5.72;78.17;99835.44;4484985;31;20122;-76
2024/01/27 11:38:32;;;;;;;1.85;0.62;;;;;;;5.92;75.41;99857.78;4485379;31;20089;-76
2024/01/27 11:41:01;;;;;;;5.07;0.93;;;;;;;5.58;77.56;99831.78;4485243;31;20115;-76